Time;durP1;ratioP1;P1;durP2;ratioP2;P2;SDS_P1;SDS_P2;PMS_P1;PMS_P2;Temp;Humidity;BMP_temperature;BMP_pressure;BME280_temperature;BME280_humidity;BME280_pressure;Samples;Min_cycle;Max_cycle;Signal;HPM_P1;HPM_P2
2023/03/30 00:01:41;;;;;;;17.93;5.17;;;6.50;84.60;;;4.92;69.52;100623.06;10273412;28;97792;-83
2023/03/30 00:06:44;;;;;;;27.33;7.17;;;6.60;84.60;;;4.97;69.20;100610.34;10251345;28;97021;-83
2023/03/30 00:11:47;;;;;;;7.03;2.80;;;6.60;84.70;;;4.99;68.99;100604.97;10226128;28;96645;-84
2023/03/30 00:16:52;;;;;;;4.30;2.20;;;6.70;84.80;;;4.96;69.13;100605.19;10253302;28;98024;-82
2023/03/30 00:21:55;;;;;;;4.00;1.77;;;6.60;85.30;;;4.95;69.26;100603.53;10256888;28;96516;-82
2023/03/30 00:26:58;;;;;;;4.63;1.77;;;6.60;85.30;;;4.93;69.57;100597.56;10220436;28;98809;-84
2023/03/30 00:32:02;;;;;;;7.07;2.57;;;6.60;85.50;;;4.94;69.50;100594.78;10261355;28;96623;-82
2023/03/30 00:37:05;;;;;;;36.60;9.73;;;6.60;85.60;;;4.96;69.60;100592.88;10252126;28;96568;-83
2023/03/30 00:42:16;;;;;;;6.57;3.20;;;6.60;86.00;;;4.90;70.05;100580.19;10247404;28;96517;-83
2023/03/30 00:47:20;;;;;;;;;;;6.60;86.10;;;4.89;70.60;100582.94;10275121;28;96655;-83
2023/03/30 00:52:23;;;;;;;5.37;2.43;;;6.60;88.20;;;4.87;70.74;100583.06;10250803;28;96533;-83
2023/03/30 00:57:27;;;;;;;29.40;7.00;;;6.50;86.90;;;4.88;70.95;100563.69;10261132;28;97002;-83
2023/03/30 01:02:38;;;;;;;68.80;18.87;;;6.50;87.20;;;4.89;70.89;100557.44;10241213;28;97370;-84
2023/03/30 01:07:45;;;;;;;60.70;15.17;;;6.60;87.70;;;4.89;70.74;100560.09;10251146;28;96652;-83
2023/03/30 01:12:48;;;;;;;15.23;4.93;;;6.60;87.80;;;4.86;70.84;100557.72;10249245;28;96533;-83
2023/03/30 01:18:07;;;;;;;11.03;3.13;;;6.50;88.10;;;4.82;71.10;100543.94;10265592;28;96736;-84
2023/03/30 01:23:26;;;;;;;9.30;3.20;;;6.50;88.30;;;4.73;71.20;100531.50;10272903;28;96617;-82
2023/03/30 01:28:47;;;;;;;5.90;2.70;;;6.40;88.50;;;4.50;71.49;100528.06;10250549;28;96615;-82
2023/03/30 01:34:56;;;;;;;43.25;12.13;;;6.30;88.70;;;4.25;72.09;100523.03;10251782;28;97131;-83
2023/03/30 01:40:16;;;;;;;7.20;3.30;;;6.00;89.00;;;4.00;72.07;100521.47;10232214;28;98542;-84
2023/03/30 01:45:25;;;;;;;4.50;2.53;;;5.80;89.30;;;3.79;72.20;100525.75;10241292;28;98305;-82
2023/03/30 01:51:04;;;;;;;5.07;2.33;;;5.60;89.60;;;3.49;73.45;100524.47;10249492;28;96502;-83
2023/03/30 01:56:50;;;;;;;5.87;2.40;;;5.40;90.30;;;3.27;74.01;100525.22;10250188;28;96676;-82
2023/03/30 02:02:03;;;;;;;15.80;5.80;;;5.10;90.60;;;3.09;74.25;100526.56;10222580;28;96638;-82
2023/03/30 02:07:18;;;;;;;6.73;3.47;;;4.90;90.80;;;2.88;74.91;100529.81;10241966;28;97121;-83
2023/03/30 02:12:22;;;;;;;10.77;4.23;;;4.70;91.10;;;2.73;76.33;100519.56;10256432;28;97161;-83
2023/03/30 02:17:29;;;;;;;14.13;5.20;;;4.60;91.10;;;2.65;76.27;100514.88;10245647;28;97462;-83
2023/03/30 02:22:32;;;;;;;7.20;2.93;;;4.50;91.40;;;2.48;76.64;100512.59;10255730;28;96442;-83
2023/03/30 02:27:37;;;;;;;9.10;3.87;;;4.40;92.20;;;2.31;76.58;100512.00;10285733;28;98332;-83
2023/03/30 02:32:50;;;;;;;3.67;2.43;;;4.20;92.20;;;2.19;76.76;100515.47;10281258;28;96561;-83
2023/03/30 02:38:18;;;;;;;5.37;2.57;;;4.10;92.70;;;2.09;77.47;100519.66;10260392;28;96616;-83
2023/03/30 02:44:02;;;;;;;5.23;2.93;;;4.00;93.20;;;2.06;77.78;100507.63;10273557;28;96551;-83
2023/03/30 02:49:24;;;;;;;5.40;2.73;;;3.90;93.30;;;2.11;79.12;100544.84;10282228;28;96977;-83
2023/03/30 02:54:52;;;;;;;6.85;3.47;;;4.00;94.40;;;2.19;79.16;100523.34;10265685;28;96417;-83
2023/03/30 03:00:23;;;;;;;5.27;2.73;;;4.00;94.60;;;2.36;79.52;100516.94;10254124;28;97568;-82
2023/03/30 03:05:27;;;;;;;9.43;3.03;;;4.10;95.00;;;2.46;79.60;100510.09;10282738;28;96548;-83
2023/03/30 03:10:35;;;;;;;6.60;3.37;;;4.20;95.20;;;2.61;79.37;100527.34;10277877;28;98612;-82
2023/03/30 03:15:38;;;;;;;5.77;2.73;;;4.30;95.40;;;2.72;79.19;100513.47;10247239;28;96559;-83
2023/03/30 03:20:41;;;;;;;6.90;3.40;;;4.40;95.40;;;2.85;79.18;100535.28;10295954;28;97616;-83
2023/03/30 03:25:44;;;;;;;5.73;3.13;;;4.60;95.80;;;2.95;79.05;100519.72;10282464;28;97317;-83
2023/03/30 03:30:50;;;;;;;8.77;4.20;;;4.70;95.80;;;3.09;79.05;100534.44;10250349;28;96914;-82
2023/03/30 03:35:54;;;;;;;5.87;3.27;;;4.80;96.40;;;3.14;79.19;100527.06;10252603;28;96514;-82
2023/03/30 03:40:58;;;;;;;9.23;3.80;;;4.80;96.40;;;3.22;79.56;100520.28;10251329;28;96621;-82
2023/03/30 03:46:01;;;;;;;5.80;3.13;;;4.90;96.50;;;3.29;79.13;100518.06;10233827;28;96484;-82
2023/03/30 03:51:05;;;;;;;5.20;3.00;;;5.00;96.60;;;3.35;79.11;100514.13;10236548;28;96524;-83
2023/03/30 03:56:10;;;;;;;7.43;2.83;;;5.00;96.70;;;3.37;79.22;100507.00;10212566;28;96365;-82
2023/03/30 04:01:14;;;;;;;5.60;2.97;;;5.10;96.70;;;3.34;79.13;100510.69;10238806;28;97285;-82
2023/03/30 04:06:17;;;;;;;10.93;4.37;;;5.10;97.20;;;3.33;79.29;100514.25;10252999;28;98082;-83
2023/03/30 04:11:21;;;;;;;6.47;3.80;;;5.10;97.00;;;3.36;79.50;100508.78;10255771;28;96456;-83
2023/03/30 04:16:24;;;;;;;8.37;4.13;;;5.10;97.10;;;3.37;79.55;100504.38;10250654;28;96440;-83
2023/03/30 04:21:28;;;;;;;9.03;5.13;;;5.10;97.30;;;3.38;79.46;100503.41;10273354;28;97303;-83
2023/03/30 04:26:31;;;;;;;8.73;4.23;;;5.10;97.30;;;3.35;79.81;100506.25;10267890;28;96808;-84
2023/03/30 04:31:37;;;;;;;9.07;4.57;;;5.10;97.80;;;3.29;80.11;100502.28;10264346;28;96573;-84
2023/03/30 04:36:43;;;;;;;10.50;5.70;;;5.00;98.00;;;3.29;80.20;100496.19;10250102;28;96953;-83
2023/03/30 04:41:46;;;;;;;9.50;5.20;;;5.00;98.10;;;3.32;80.26;100486.31;10268382;28;96684;-83
2023/03/30 04:46:49;;;;;;;11.20;5.77;;;5.00;98.30;;;3.41;80.01;100490.03;10247048;28;96622;-83
2023/03/30 04:51:53;;;;;;;13.07;5.87;;;5.10;98.30;;;3.55;79.99;100489.84;10250791;28;96351;-83
2023/03/30 04:56:56;;;;;;;13.97;6.70;;;5.20;98.30;;;3.66;79.64;100482.00;10270092;28;96545;-83
2023/03/30 05:01:59;;;;;;;11.77;7.33;;;5.30;98.30;;;3.79;79.05;100478.44;10263103;28;98256;-83
2023/03/30 05:07:03;;;;;;;11.80;5.40;;;5.40;98.10;;;3.85;78.72;100477.97;10279372;28;96584;-83
2023/03/30 05:12:06;;;;;;;10.33;5.73;;;5.50;98.10;;;3.96;78.42;100486.69;10271106;28;96982;-86
2023/03/30 05:17:10;;;;;;;12.73;6.10;;;5.60;98.10;;;4.12;78.27;100472.34;10246603;28;98632;-84
2023/03/30 05:22:15;;;;;;;9.33;5.43;;;5.80;98.10;;;4.26;77.78;100486.09;10269955;28;97578;-83
2023/03/30 05:27:18;;;;;;;14.40;6.87;;;5.90;97.80;;;4.44;77.08;100468.03;10267098;28;96715;-84
2023/03/30 05:32:21;;;;;;;10.57;5.60;;;6.00;97.60;;;4.62;76.23;100473.63;10247717;28;97371;-84
2023/03/30 05:37:25;;;;;;;15.00;7.33;;;6.20;97.40;;;4.77;75.73;100471.53;10250678;28;96618;-86
2023/03/30 05:42:28;;;;;;;13.37;6.70;;;6.40;97.10;;;4.93;74.87;100476.41;10257660;28;96640;-85
2023/03/30 05:47:31;;;;;;;10.77;6.63;;;6.50;96.80;;;4.98;73.36;100466.34;10256274;28;97914;-86
2023/03/30 05:52:34;;;;;;;16.53;10.53;;;6.60;96.50;;;5.16;72.72;100461.34;10235316;28;96469;-85
2023/03/30 05:57:37;;;;;;;21.80;12.10;;;6.70;96.30;;;5.32;72.59;100457.31;10297743;28;96445;-86
2023/03/30 06:02:40;;;;;;;23.20;12.27;;;6.90;96.20;;;5.52;72.40;100452.19;10270102;28;96637;-86
2023/03/30 06:07:44;;;;;;;13.13;8.43;;;7.00;96.10;;;5.78;70.94;100457.88;10258882;28;96596;-85
2023/03/30 06:12:47;;;;;;;19.33;8.47;;;7.20;95.70;;;6.01;69.71;100456.78;10291899;28;96624;-86
2023/03/30 06:17:51;;;;;;;11.43;7.43;;;7.40;95.40;;;6.20;68.05;100463.09;10297546;28;96519;-86
2023/03/30 06:22:55;;;;;;;12.03;6.70;;;7.60;94.80;;;6.29;67.65;100446.44;10294744;28;96858;-86
2023/03/30 06:27:58;;;;;;;14.47;8.90;;;7.70;94.40;;;6.35;66.59;100435.34;10294197;28;96732;-86
2023/03/30 06:33:01;;;;;;;11.97;7.30;;;7.80;93.90;;;6.51;65.66;100429.56;10247227;28;97326;-86
2023/03/30 06:38:04;;;;;;;10.53;7.50;;;8.00;93.50;;;6.63;63.82;100431.13;10254858;28;96584;-86
2023/03/30 06:43:17;;;;;;;13.07;6.70;;;8.10;92.70;;;6.74;63.57;100424.88;10256465;28;96423;-86
2023/03/30 06:48:22;;;;;;;12.27;7.23;;;8.20;92.30;;;6.82;63.64;100433.78;10255286;28;96403;-86
2023/03/30 06:53:25;;;;;;;8.20;6.10;;;8.30;92.10;;;6.88;62.80;100427.09;10253699;28;96560;-86
2023/03/30 06:58:29;;;;;;;11.73;6.37;;;8.30;91.60;;;6.95;62.06;100425.56;10256035;28;96483;-86
2023/03/30 07:03:32;;;;;;;13.13;6.87;;;8.40;91.40;;;7.00;62.07;100431.28;10237196;28;96689;-87
2023/03/30 07:08:36;;;;;;;10.20;7.20;;;8.40;91.20;;;7.01;62.16;100427.66;10270628;28;96572;-87
2023/03/30 07:13:39;;;;;;;11.03;7.07;;;8.40;91.00;;;7.02;62.26;100423.22;10287813;28;96746;-87
2023/03/30 07:18:42;;;;;;;15.13;8.27;;;8.50;90.90;;;7.11;62.20;100403.88;10253015;28;96635;-86
2023/03/30 07:23:45;;;;;;;12.00;7.43;;;8.60;90.80;;;7.23;60.40;100415.97;10271884;28;96644;-86
2023/03/30 07:28:48;;;;;;;14.57;8.73;;;8.70;90.40;;;7.32;60.99;100419.59;10290652;28;96558;-86
2023/03/30 07:33:51;;;;;;;15.27;7.30;;;8.90;90.20;;;7.49;60.31;100418.84;10252862;28;98256;-85
2023/03/30 07:38:57;;;;;;;14.63;8.17;;;9.00;89.70;;;7.81;60.69;100409.72;10294055;28;96482;-85
2023/03/30 07:44:00;;;;;;;17.00;9.50;;;9.30;89.50;;;8.12;59.19;100418.22;10282829;28;97244;-86
2023/03/30 07:49:03;;;;;;;15.27;9.40;;;9.50;88.70;;;8.41;57.60;100421.59;10282954;28;96624;-85
2023/03/30 07:54:09;;;;;;;14.43;8.40;;;9.80;87.30;;;8.87;57.65;100410.94;10254570;28;97903;-86
2023/03/30 07:59:12;;;;;;;14.53;7.83;;;10.20;86.80;;;9.36;56.36;100421.00;10293967;28;96451;-86
2023/03/30 08:04:17;;;;;;;10.87;6.57;;;10.60;85.70;;;9.83;54.99;100411.81;10288191;28;96466;-84
2023/03/30 08:09:20;;;;;;;13.03;7.60;;;11.10;84.30;;;10.20;53.66;100408.84;10247846;28;97903;-84
2023/03/30 08:14:25;;;;;;;8.80;5.87;;;11.40;82.40;;;10.41;51.40;100414.59;10251116;28;96384;-85
2023/03/30 08:19:28;;;;;;;11.67;7.50;;;11.70;80.40;;;10.46;51.56;100403.47;10252493;28;96443;-85
2023/03/30 08:24:31;;;;;;;10.80;7.13;;;11.70;78.80;;;10.23;50.70;100399.72;10289598;28;97179;-84
2023/03/30 08:29:34;;;;;;;10.80;6.63;;;11.60;76.00;;;10.00;50.68;100402.13;10292512;28;96581;-85
2023/03/30 08:34:38;;;;;;;13.83;7.47;;;11.40;76.40;;;9.80;51.78;100404.19;10289619;28;96596;-85
2023/03/30 08:39:41;;;;;;;12.73;6.93;;;11.30;76.50;;;9.70;52.29;100391.00;10256626;28;96994;-85
2023/03/30 08:44:52;;;;;;;10.57;6.63;;;11.20;76.70;;;9.65;52.33;100409.22;10251348;28;96533;-85
2023/03/30 08:50:33;;;;;;;11.30;6.53;;;11.10;76.20;;;9.57;52.91;100403.88;10268760;28;96548;-85
2023/03/30 08:55:59;;;;;;;11.00;7.53;;;11.10;76.40;;;9.58;53.79;100390.44;10264746;28;97295;-85
2023/03/30 09:01:05;;;;;;;10.77;6.53;;;11.10;77.50;;;9.75;53.78;100388.72;10287622;28;97246;-85
2023/03/30 09:06:25;;;;;;;13.00;6.83;;;11.20;77.30;;;9.72;53.03;100375.78;10288198;28;96669;-85
2023/03/30 09:11:35;;;;;;;9.83;6.63;;;11.20;77.00;;;9.73;52.55;100373.97;10225495;28;96692;-85
2023/03/30 09:16:54;;;;;;;11.05;7.53;;;11.20;76.80;;;9.85;53.04;100381.47;10274269;28;96390;-85
2023/03/30 09:22:02;;;;;;;11.90;6.97;;;11.30;76.80;;;10.05;52.69;100358.16;10288846;28;96491;-86
2023/03/30 09:27:40;;;;;;;10.73;6.80;;;11.50;76.50;;;10.17;52.57;100353.41;10288803;28;97979;-85
2023/03/30 09:32:58;;;;;;;11.63;6.93;;;11.60;76.10;;;10.31;53.18;100344.00;10255978;28;96634;-86
2023/03/30 09:38:03;;;;;;;14.57;7.03;;;11.70;76.30;;;10.47;53.01;100332.56;10248357;28;96704;-86
2023/03/30 09:43:18;;;;;;;17.43;9.57;;;11.90;76.40;;;10.91;52.91;100331.25;10251028;28;96799;-86
2023/03/30 09:48:20;;;;;;;10.53;7.47;;;12.30;76.50;;;11.39;51.33;100332.19;10282417;28;96774;-86
2023/03/30 09:53:28;;;;;;;13.23;6.63;;;12.70;75.30;;;11.71;50.19;100336.63;10279040;28;96572;-86
2023/03/30 09:58:33;;;;;;;11.80;7.45;;;13.00;74.40;;;11.98;49.83;100330.03;10249956;28;97745;-87
2023/03/30 10:03:36;;;;;;;11.70;8.00;;;13.30;73.80;;;12.10;48.40;100322.47;10285174;28;97790;-86
2023/03/30 10:08:51;;;;;;;9.98;7.13;;;13.50;72.70;;;12.13;48.66;100321.31;10287787;28;96683;-86
2023/03/30 10:13:54;;;;;;;12.13;7.20;;;13.50;71.80;;;11.99;48.87;100313.03;10289678;28;96408;-87
2023/03/30 10:19:03;;;;;;;11.70;6.83;;;13.40;71.60;;;11.84;49.43;100301.47;10280651;28;96597;-87
2023/03/30 10:24:22;;;;;;;13.13;7.30;;;13.30;71.80;;;11.86;50.28;100299.47;10283657;28;97638;-86
2023/03/30 10:29:28;;;;;;;12.37;8.23;;;13.30;72.30;;;11.92;50.36;100290.78;10279684;28;96818;-86
2023/03/30 10:34:45;;;;;;;9.90;7.50;;;13.40;72.50;;;12.16;50.11;100289.00;10293983;28;97685;-87
2023/03/30 10:39:50;;;;;;;11.47;8.13;;;13.60;72.40;;;12.25;49.21;100263.97;10276410;28;96597;-86
2023/03/30 10:45:05;;;;;;;11.87;7.30;;;13.70;71.70;;;12.37;49.97;100256.41;10286587;28;96820;-86
2023/03/30 10:50:11;;;;;;;14.45;9.18;;;13.70;71.70;;;12.36;49.44;100254.75;10278925;28;98093;-86
2023/03/30 10:55:37;;;;;;;11.48;7.57;;;13.80;71.40;;;12.51;49.61;100251.09;10254160;28;98266;-86
2023/03/30 11:01:25;;;;;;;12.05;7.80;;;13.90;71.50;;;12.89;49.59;100235.09;10254649;28;96916;-86
2023/03/30 11:06:38;;;;;;;13.15;8.70;;;14.20;71.70;;;13.05;48.44;100234.94;10248507;28;96871;-86
2023/03/30 11:11:55;;;;;;;13.15;8.18;;;14.50;70.50;;;13.04;47.33;100235.94;10262196;28;96716;-87
2023/03/30 11:17:09;;;;;;;13.63;9.32;;;14.60;69.80;;;12.84;49.58;100229.50;10274087;28;96526;-86
2023/03/30 11:22:30;;;;;;;15.70;8.23;;;14.30;69.90;;;12.66;49.01;100239.66;10291472;28;96562;-86
2023/03/30 11:27:47;;;;;;;12.95;8.70;;;14.10;70.20;;;12.51;49.58;100207.63;10254766;28;96396;-86
2023/03/30 11:33:06;;;;;;;15.27;10.55;;;14.00;70.70;;;12.46;50.19;100215.34;10252990;28;96721;-86
2023/03/30 11:38:55;;;;;;;14.60;10.02;;;13.90;71.30;;;12.61;50.76;100210.06;10279749;28;98366;-86
2023/03/30 11:43:58;;;;;;;13.95;9.20;;;14.00;72.00;;;12.97;49.90;100202.19;10290494;28;96561;-86
2023/03/30 11:49:32;;;;;;;15.40;9.68;;;14.30;72.00;;;13.22;49.27;100194.78;10286207;28;96796;-86
2023/03/30 11:55:07;;;;;;;18.00;9.68;;;14.60;71.00;;;13.37;49.92;100191.09;10268219;28;96794;-86
2023/03/30 12:00:33;;;;;;;15.18;9.75;;;14.80;71.20;;;13.49;48.20;100187.91;10267161;28;96711;-87
2023/03/30 12:05:52;;;;;;;17.00;10.77;;;14.90;70.10;;;13.59;49.44;100169.75;10261791;28;97724;-87
2023/03/30 12:11:10;;;;;;;17.38;11.05;;;15.00;70.80;;;13.79;49.51;100161.97;10275526;28;96443;-86
2023/03/30 12:16:27;;;;;;;15.32;10.18;;;15.20;71.10;;;14.25;48.87;100140.19;10270030;28;96873;-86
2023/03/30 12:21:36;;;;;;;14.27;9.40;;;15.70;70.70;;;14.53;47.59;100125.03;10285923;28;97737;-86
2023/03/30 12:26:40;;;;;;;16.60;11.45;;;15.90;69.40;;;14.60;47.78;100109.03;10247837;28;96589;-87
2023/03/30 12:32:02;;;;;;;15.85;10.93;;;16.00;69.10;;;14.47;47.72;100111.63;10258785;28;97322;-86
2023/03/30 12:37:33;;;;;;;11.98;10.07;;;15.90;69.00;;;14.38;48.17;100103.69;10255089;28;97364;-86
2023/03/30 12:42:45;;;;;;;17.83;10.93;;;15.80;69.00;;;14.33;48.02;100083.91;10211604;28;96466;-86
2023/03/30 12:48:15;;;;;;;27.73;11.43;;;15.80;69.40;;;14.49;48.79;100080.97;10285290;28;96512;-87
2023/03/30 12:53:30;;;;;;;14.60;9.80;;;15.90;69.80;;;14.60;47.99;100075.09;10272847;28;96822;-87
2023/03/30 12:59:29;;;;;;;12.70;8.85;;;16.10;69.30;;;14.56;48.65;100065.81;10274412;28;96585;-87
2023/03/30 13:04:39;;;;;;;15.20;8.55;;;16.10;69.40;;;14.56;48.98;100068.47;10126967;28;96646;-86
2023/03/30 13:10:03;;;;;;;21.15;11.77;;;16.00;69.70;;;14.52;48.68;100066.41;10270451;28;96536;-86
2023/03/30 13:15:40;;;;;;;17.60;10.23;;;16.00;69.70;;;14.43;49.11;100065.69;10292444;28;97172;-87
2023/03/30 13:20:47;;;;;;;16.63;9.75;;;15.90;69.80;;;14.31;49.08;100060.06;10291361;28;96604;-87
2023/03/30 13:26:38;;;;;;;17.23;10.70;;;15.80;70.00;;;14.25;50.16;100057.34;10282047;28;96771;-87
2023/03/30 13:32:11;;;;;;;13.67;9.47;;;15.70;70.70;;;14.22;50.23;100044.41;10156917;28;97849;-86
2023/03/30 13:37:50;;;;;;;15.73;11.13;;;15.60;70.70;;;14.17;50.54;100043.13;10228320;28;96567;-87
2023/03/30 13:43:15;;;;;;;16.20;9.85;;;15.60;71.20;;;14.19;50.90;100035.72;10292621;28;96435;-86
2023/03/30 13:48:40;;;;;;;13.70;9.88;;;15.60;71.40;;;14.22;50.74;100025.69;10291150;28;96599;-86
2023/03/30 13:53:55;;;;;;;16.08;10.35;;;15.60;71.60;;;14.23;51.04;100016.63;10255389;28;96598;-86
2023/03/30 13:59:06;;;;;;;14.38;9.35;;;15.60;71.60;;;14.30;51.14;99994.28;10232458;28;97277;-86
2023/03/30 14:04:12;;;;;;;16.40;9.90;;;15.70;71.80;;;14.41;50.69;99995.56;10255107;28;98523;-86
2023/03/30 14:09:25;;;;;;;18.75;12.23;;;15.80;71.90;;;14.33;51.23;99974.31;10266184;28;96536;-86
2023/03/30 14:14:28;;;;;;;13.52;9.82;;;15.80;72.00;;;14.34;51.39;99962.63;10276504;28;97307;-86
2023/03/30 14:19:35;;;;;;;21.63;10.65;;;15.80;72.00;;;14.45;52.01;99954.88;10261683;28;96702;-86
2023/03/30 14:24:38;;;;;;;15.88;8.98;;;15.80;72.50;;;14.54;51.84;99944.03;10276547;28;97615;-87
2023/03/30 14:29:48;;;;;;;16.15;10.60;;;16.00;72.50;;;14.49;51.49;99933.13;10281083;28;96620;-86
2023/03/30 14:34:53;;;;;;;18.02;11.93;;;16.00;72.40;;;14.45;52.30;99921.94;10237045;28;96768;-86
2023/03/30 14:39:56;;;;;;;17.00;10.38;;;15.90;72.80;;;14.35;52.30;99906.28;10283902;28;97779;-86
2023/03/30 14:44:59;;;;;;;12.95;9.10;;;15.80;72.80;;;14.26;52.63;99894.13;10253157;28;96965;-86
2023/03/30 14:50:07;;;;;;;14.95;9.32;;;15.70;73.10;;;14.31;52.76;99883.66;10257010;28;96608;-86
2023/03/30 14:55:22;;;;;;;18.75;8.93;;;15.70;73.60;;;14.41;53.54;99878.75;10235244;28;97742;-84
2023/03/30 15:00:44;;;;;;;13.45;7.40;;;15.80;73.90;;;14.51;53.09;99865.03;10282361;28;98110;-89
2023/03/30 15:05:47;;;;;;;12.27;6.47;;;15.90;73.90;;;14.51;53.20;99875.72;10241154;28;96547;-87
2023/03/30 15:10:57;;;;;;;10.80;6.88;;;15.90;73.80;;;14.47;53.45;99866.47;10265162;28;97093;-85
2023/03/30 15:16:01;;;;;;;11.00;7.63;;;15.90;74.10;;;14.35;53.35;99863.53;10262414;28;97341;-86
2023/03/30 15:21:06;;;;;;;15.15;8.82;;;15.80;74.30;;;14.29;53.88;99871.53;10262378;28;97254;-84
2023/03/30 15:26:11;;;;;;;13.95;9.15;;;15.70;74.60;;;14.27;54.08;99876.22;10253916;28;96640;-86
2023/03/30 15:31:15;;;;;;;11.18;7.97;;;15.70;74.80;;;14.22;54.03;99886.72;10274734;28;96775;-85
2023/03/30 15:36:25;;;;;;;19.10;9.85;;;15.70;74.80;;;14.14;54.74;99888.50;10265778;28;96524;-85
2023/03/30 15:42:03;;;;;;;15.40;9.77;;;15.60;75.10;;;14.03;55.12;99885.56;10264232;28;97399;-84
2023/03/30 15:47:16;;;;;;;20.50;10.70;;;15.50;75.60;;;13.92;55.60;99911.03;10253723;28;96456;-85
2023/03/30 15:52:33;;;;;;;15.52;10.27;;;15.40;75.90;;;13.76;56.77;99922.81;10257804;28;96581;-85
2023/03/30 15:57:44;;;;;;;18.47;12.20;;;15.20;76.90;;;13.45;60.05;99895.69;10293603;28;97616;-85
2023/03/30 16:02:58;;;;;;;18.60;12.20;;;15.00;78.80;;;12.97;63.62;99892.78;10271815;28;96527;-85
2023/03/30 16:08:01;;;;;;;42.97;26.23;;;14.70;80.90;;;12.59;66.13;99883.19;10272168;28;97356;-85
2023/03/30 16:13:05;;;;;;;26.73;15.63;;;14.30;83.20;;;12.19;68.15;99881.91;10279249;28;96588;-87
2023/03/30 16:18:11;;;;;;;35.03;22.87;;;13.90;85.50;;;11.87;70.89;99880.44;10290899;28;96568;-86
2023/03/30 16:23:14;;;;;;;26.60;18.90;;;13.60;88.10;;;11.64;73.20;99861.06;10290749;28;96519;-85
2023/03/30 16:28:17;;;;;;;35.13;26.83;;;13.40;90.20;;;11.47;76.01;99841.75;10276400;28;96607;-86
2023/03/30 16:33:20;;;;;;;29.00;20.23;;;13.20;91.30;;;11.31;78.46;99834.75;10220652;28;96511;-85
2023/03/30 16:38:24;;;;;;;39.53;27.03;;;13.00;92.20;;;11.18;79.30;99843.38;10273437;28;96670;-86
2023/03/30 16:43:27;;;;;;;67.77;37.30;;;12.90;93.10;;;11.10;80.47;99848.78;10293353;28;96421;-86
2023/03/30 16:48:30;;;;;;;39.50;24.60;;;12.80;94.10;;;10.96;81.88;99862.81;10255696;28;96493;-86
2023/03/30 16:53:33;;;;;;;36.07;21.47;;;12.60;95.00;;;10.79;83.84;99859.47;10278197;28;96584;-86
2023/03/30 16:58:36;;;;;;;23.90;16.40;;;12.40;96.70;;;10.64;85.60;99866.56;10291399;28;96812;-85
2023/03/30 17:03:39;;;;;;;22.30;16.27;;;12.20;98.60;;;10.58;85.94;99875.22;10278419;28;96596;-86
2023/03/30 17:08:43;;;;;;;43.90;21.43;;;12.10;99.90;;;10.53;86.25;99877.59;10251156;28;96986;-86
2023/03/30 17:13:47;;;;;;;26.33;19.07;;;12.10;99.90;;;10.47;86.54;99872.97;10251664;28;97831;-87
2023/03/30 17:18:50;;;;;;;34.63;20.10;;;12.10;99.90;;;10.40;87.36;99880.81;10255619;28;96449;-86
2023/03/30 17:23:54;;;;;;;35.73;24.27;;;12.00;99.90;;;10.34;87.82;99863.75;10289805;28;96696;-87
2023/03/30 17:28:57;;;;;;;79.37;32.87;;;11.90;99.90;;;10.33;88.39;99845.34;10284653;28;96555;-87
2023/03/30 17:34:00;;;;;;;53.53;31.77;;;11.90;99.90;;;10.29;88.81;99852.81;10292060;28;96559;-87
2023/03/30 17:39:03;;;;;;;73.20;32.10;;;11.90;99.90;;;10.24;89.43;99835.75;10290762;28;96531;-87
2023/03/30 17:44:07;;;;;;;72.57;30.27;;;11.80;99.90;;;10.18;90.02;99843.38;10275578;28;96420;-87
2023/03/30 17:49:16;;;;;;;111.70;35.40;;;11.80;99.90;;;10.16;90.34;99836.59;10284810;28;96680;-86
2023/03/30 17:54:19;;;;;;;76.80;31.77;;;11.80;99.90;;;10.09;90.90;99838.28;10290940;28;96521;-83
2023/03/30 17:59:22;;;;;;;44.47;26.80;;;11.70;99.90;;;10.05;91.38;99823.69;10291090;28;96529;-84
2023/03/30 18:04:26;;;;;;;58.87;36.67;;;11.70;99.90;;;10.01;91.75;99836.47;10253531;28;98521;-86
2023/03/30 18:09:30;;;;;;;71.77;48.07;;;11.60;99.90;;;9.97;92.36;99839.69;10242628;28;96614;-86
2023/03/30 18:14:33;;;;;;;56.67;37.50;;;11.50;99.90;;;9.93;92.89;99858.59;10247739;28;96820;-86
2023/03/30 18:19:36;;;;;;;42.60;29.63;;;11.50;99.90;;;9.90;93.55;99874.06;10256123;28;96590;-84
2023/03/30 18:24:39;;;;;;;41.43;28.67;;;11.40;99.90;;;9.85;93.72;99917.03;10240460;28;96376;-84
2023/03/30 18:29:45;;;;;;;38.10;27.77;;;11.40;99.90;;;9.80;93.81;99927.31;10245035;28;97421;-85
2023/03/30 18:34:48;;;;;;;43.80;29.77;;;11.30;99.90;;;9.78;93.74;99924.00;10257129;28;98254;-86
2023/03/30 18:39:52;;;;;;;38.47;28.33;;;11.30;99.90;;;9.72;94.09;99916.72;10271481;28;98405;-86
2023/03/30 18:44:55;;;;;;;39.73;28.53;;;11.20;99.90;;;9.69;94.94;99925.00;10223144;28;96444;-86
2023/03/30 18:49:58;;;;;;;40.77;28.37;;;11.20;99.90;;;9.64;95.26;99916.72;10228495;28;97085;-85
2023/03/30 18:55:01;;;;;;;44.10;29.13;;;11.20;99.90;;;9.58;95.70;99914.75;10264998;28;97962;-84
2023/03/30 19:00:20;;;;;;;46.90;31.93;;;11.10;99.90;;;9.56;96.35;99898.19;10235991;28;97528;-84
2023/03/30 19:05:26;;;;;;;78.00;37.50;;;11.10;99.90;;;9.55;96.50;99885.91;10238796;28;98477;-84
2023/03/30 19:10:37;;;;;;;49.53;32.30;;;11.10;99.90;;;9.48;96.67;99839.84;10251614;28;96499;-85
2023/03/30 19:15:41;;;;;;;45.90;31.60;;;11.10;99.90;;;9.33;97.32;99859.09;10246797;28;96666;-84
2023/03/30 19:20:45;;;;;;;42.17;29.27;;;10.90;99.90;;;9.23;97.70;99847.81;10282903;28;97443;-85
2023/03/30 19:25:48;;;;;;;45.20;26.70;;;10.90;99.90;;;9.17;97.97;99852.97;10253847;28;96838;-84
2023/03/30 19:30:52;;;;;;;36.77;25.73;;;10.80;99.90;;;9.13;98.17;99841.88;10260276;28;98390;-84
2023/03/30 19:35:55;;;;;;;34.17;19.73;;;10.70;99.90;;;9.06;98.45;99820.53;10279272;28;96555;-84
2023/03/30 19:41:03;;;;;;;30.00;19.90;;;10.70;99.90;;;9.02;98.31;99824.50;10260400;28;97185;-84
2023/03/30 19:46:07;;;;;;;94.33;36.57;;;10.70;99.90;;;8.98;98.36;99806.44;10258008;28;97420;-89
2023/03/30 19:51:11;;;;;;;36.03;23.37;;;10.60;99.90;;;8.91;98.49;99805.44;10262514;28;96831;-90
2023/03/30 19:56:17;;;;;;;30.93;21.03;;;10.50;99.90;;;8.80;98.66;99815.38;10249371;28;97530;-91
2023/03/30 20:01:20;;;;;;;29.17;21.97;;;10.50;99.90;;;8.73;99.23;99814.38;10234090;28;96621;-89
2023/03/30 20:06:24;;;;;;;34.57;25.00;;;10.40;99.90;;;8.77;99.87;99810.44;10259719;28;97347;-91
2023/03/30 20:11:27;;;;;;;36.57;26.63;;;10.40;99.90;;;8.78;100.00;99809.44;10239320;28;98356;-83
2023/03/30 20:16:33;;;;;;;31.40;24.03;;;10.30;99.90;;;8.75;100.00;99812.41;10229113;28;98204;-85
2023/03/30 20:21:38;;;;;;;40.63;30.20;;;10.40;99.90;;;8.73;100.00;99802.97;10241898;28;96579;-85
2023/03/30 20:26:41;;;;;;;40.40;26.50;;;10.30;99.90;;;8.79;100.00;99808.44;10268140;28;96971;-85
2023/03/30 20:31:45;;;;;;;40.70;28.57;;;10.40;99.90;;;8.81;100.00;99785.25;10225141;28;96519;-85
2023/03/30 20:36:48;;;;;;;44.97;30.40;;;10.40;99.90;;;8.80;100.00;99788.06;10226264;28;96486;-85
2023/03/30 20:41:56;;;;;;;48.80;32.10;;;10.40;99.90;;;8.77;100.00;99799.84;10258029;28;96637;-85
2023/03/30 20:47:02;;;;;;;43.40;30.13;;;10.40;99.90;;;8.78;100.00;99798.84;10247190;28;96612;-85
2023/03/30 20:52:05;;;;;;;82.70;42.83;;;10.40;99.90;;;8.80;100.00;99804.78;10243232;28;97430;-85
2023/03/30 20:57:09;;;;;;;92.00;43.87;;;10.40;99.90;;;8.79;100.00;99784.59;10265349;28;98474;-85
2023/03/30 21:02:13;;;;;;;64.57;40.10;;;10.40;99.90;;;8.77;100.00;99764.56;10263309;28;97385;-87
2023/03/30 21:07:16;;;;;;;54.07;37.70;;;10.40;99.90;;;8.77;100.00;99757.44;10259695;28;98344;-85
2023/03/30 21:12:20;;;;;;;40.10;29.57;;;10.40;99.90;;;8.70;100.00;99740.56;10216934;28;96361;-86
2023/03/30 21:17:23;;;;;;;46.27;33.40;;;10.30;99.90;;;8.61;100.00;99701.81;10248742;28;96629;-84